Time;durP1;ratioP1;P1;durP2;ratioP2;P2;SDS_P1;SDS_P2;PMS_P1;PMS_P2;Temp;Humidity;BMP_temperature;BMP_pressure;BME280_temperature;BME280_humidity;BME280_pressure;Samples;Min_cycle;Max_cycle;Signal;HPM_P1;HPM_P2
2023/06/22 00:00:51;;;;;;;7.57;6.15;;;;;;;22.61;69.75;100982.47;4969469;28;20077;-82
2023/06/22 00:03:21;;;;;;;7.72;5.95;;;;;;;22.63;69.53;100975.03;4962356;28;20101;-81
2023/06/22 00:05:48;;;;;;;11.57;5.90;;;;;;;22.64;69.36;100981.19;4969386;28;20190;-79
2023/06/22 00:08:15;;;;;;;7.18;5.60;;;;;;;22.60;69.49;100977.34;4948006;29;20126;-76
2023/06/22 00:10:43;;;;;;;6.60;5.70;;;;;;;22.56;69.21;100978.84;4970768;28;20114;-80
2023/06/22 00:13:10;;;;;;;9.00;5.90;;;;;;;22.55;69.15;100974.53;4948224;28;20143;-80
2023/06/22 00:15:39;;;;;;;6.43;5.47;;;;;;;22.48;69.42;100980.78;4963599;28;20039;-76
2023/06/22 00:18:05;;;;;;;6.63;5.25;;;;;;;22.51;69.62;100971.50;4964163;28;20050;-77
2023/06/22 00:20:36;;;;;;;6.85;5.05;;;;;;;22.45;69.63;100977.75;4973108;28;20129;-77
2023/06/22 00:23:07;;;;;;;9.02;5.75;;;;;;;22.46;69.79;100982.03;4971228;28;20054;-77
2023/06/22 00:25:34;;;;;;;8.25;5.70;;;;;;;22.47;69.09;100983.66;4949749;29;20532;-78
2023/06/22 00:28:01;;;;;;;9.45;5.65;;;;;;;22.44;69.41;100981.44;4956175;28;20071;-77
2023/06/22 00:30:27;;;;;;;9.75;5.53;;;;;;;22.39;69.14;100981.31;4967500;28;20055;-76
2023/06/22 00:32:54;;;;;;;10.70;5.30;;;;;;;22.37;69.17;100970.06;4953613;29;20047;-76
2023/06/22 00:35:20;;;;;;;6.75;5.50;;;;;;;22.33;69.01;100972.34;4954436;29;20142;-76
2023/06/22 00:37:48;;;;;;;7.65;5.78;;;;;;;22.33;69.15;100984.88;4959064;29;20106;-77
2023/06/22 00:40:21;;;;;;;8.13;5.70;;;;;;;22.31;69.51;100981.63;4960829;28;20057;-76
2023/06/22 00:42:48;;;;;;;7.22;5.50;;;;;;;22.33;69.34;100976.88;4990816;28;20042;-77
2023/06/22 00:45:15;;;;;;;7.20;5.65;;;;;;;22.35;69.36;100983.63;4984162;28;20062;-77
2023/06/22 00:47:43;;;;;;;10.90;6.15;;;;;;;22.40;69.15;100981.09;4974851;28;20053;-76
2023/06/22 00:50:18;;;;;;;7.18;5.68;;;;;;;22.28;69.10;100977.53;4958242;29;20490;-76
2023/06/22 00:52:46;;;;;;;7.70;5.85;;;;;;;22.28;69.23;100984.72;4953847;29;20051;-77
2023/06/22 00:55:17;;;;;;;7.10;5.88;;;;;;;22.26;69.37;100989.47;4953741;29;20059;-76
2023/06/22 00:57:44;;;;;;;8.70;5.93;;;;;;;22.30;68.94;100977.31;4962352;28;20089;-77
2023/06/22 01:00:19;;;;;;;7.35;5.88;;;;;;;22.11;69.31;100963.22;4952972;29;20134;-77
2023/06/22 01:02:51;;;;;;;9.75;5.80;;;;;;;22.11;69.57;100982.69;4953699;29;20050;-76
2023/06/22 01:05:19;;;;;;;6.77;5.40;;;;;;;22.07;69.54;100980.69;4954053;29;20051;-76
2023/06/22 01:07:59;;;;;;;10.68;5.38;;;;;;;22.03;69.71;100972.34;4954061;29;20130;-76
2023/06/22 01:10:35;;;;;;;7.28;5.85;;;;;;;21.99;70.01;100983.63;4955347;28;20589;-77
2023/06/22 01:13:05;;;;;;;9.10;5.63;;;;;;;21.97;70.19;100973.19;4964593;28;20055;-77
2023/06/22 01:15:37;;;;;;;10.65;5.90;;;;;;;21.97;69.85;100975.84;4981609;28;20054;-77
2023/06/22 01:18:05;;;;;;;8.40;5.50;;;;;;;22.00;69.82;100967.41;4975910;28;20086;-77
2023/06/22 01:20:35;;;;;;;8.43;5.75;;;;;;;21.98;70.30;100966.81;4962480;28;20055;-78
2023/06/22 01:23:12;;;;;;;8.25;6.18;;;;;;;21.89;70.22;100954.84;4963405;28;20082;-77
2023/06/22 01:25:48;;;;;;;7.88;5.88;;;;;;;21.84;70.25;100954.69;4966954;28;20066;-78
2023/06/22 01:28:35;;;;;;;7.20;5.88;;;;;;;21.81;70.42;100955.94;4979043;28;20051;-78
2023/06/22 01:31:05;;;;;;;9.32;5.85;;;;;;;21.83;70.64;100966.38;4972880;28;20103;-78
2023/06/22 01:33:35;;;;;;;8.68;5.40;;;;;;;21.81;70.77;100955.13;4973666;28;20066;-78
2023/06/22 01:36:02;;;;;;;9.45;5.75;;;;;;;21.79;70.87;100952.69;4968735;28;20054;-77
2023/06/22 01:38:30;;;;;;;9.55;6.22;;;;;;;21.73;70.83;100948.28;4979507;28;20114;-77
2023/06/22 01:40:58;;;;;;;8.73;5.80;;;;;;;21.73;70.64;100947.44;4974914;28;20079;-78
2023/06/22 01:43:27;;;;;;;7.47;5.75;;;;;;;21.69;71.23;100947.09;4978775;28;20075;-78
2023/06/22 01:45:56;;;;;;;10.77;6.15;;;;;;;21.72;70.99;100943.97;4970589;28;20114;-77
2023/06/22 01:48:25;;;;;;;10.57;5.88;;;;;;;21.70;71.36;100945.22;4968789;28;20157;-77
2023/06/22 01:50:52;;;;;;;7.22;5.97;;;;;;;21.67;71.38;100943.00;4959932;29;20051;-77
2023/06/22 01:53:19;;;;;;;8.90;5.50;;;;;;;21.65;71.67;100937.09;4969813;28;20484;-78
2023/06/22 01:55:46;;;;;;;10.40;6.20;;;;;;;21.62;71.39;100941.00;4971124;28;20169;-79
2023/06/22 01:58:13;;;;;;;7.90;5.72;;;;;;;21.67;71.52;100935.84;4965254;28;20133;-78
2023/06/22 02:00:45;;;;;;;8.65;5.72;;;;;;;21.71;71.27;100930.88;4965294;28;20133;-77
2023/06/22 02:03:19;;;;;;;10.35;5.90;;;;;;;21.67;71.18;100938.50;4955884;28;20135;-78
2023/06/22 02:05:50;;;;;;;9.55;6.25;;;;;;;21.62;71.46;100934.88;4961590;28;20527;-78
2023/06/22 02:08:21;;;;;;;9.50;5.93;;;;;;;21.66;71.36;100934.19;4961538;28;20138;-77
2023/06/22 02:10:50;;;;;;;11.35;6.38;;;;;;;21.70;71.45;100931.91;4953671;29;20525;-78
2023/06/22 02:13:17;;;;;;;7.85;5.82;;;;;;;21.68;71.00;100929.47;4937773;29;20134;-78
2023/06/22 02:15:44;;;;;;;7.32;5.95;;;;;;;21.72;71.25;100935.97;4956674;28;20126;-78
2023/06/22 02:18:13;;;;;;;8.68;6.32;;;;;;;21.76;71.20;100942.47;4973103;28;20046;-78
2023/06/22 02:20:40;;;;;;;7.43;5.97;;;;;;;21.77;71.34;100936.09;4967245;28;20146;-76
2023/06/22 02:23:07;;;;;;;9.25;5.85;;;;;;;21.67;71.25;100927.84;4963313;28;20059;-78
2023/06/22 02:25:35;;;;;;;9.52;6.40;;;;;;;21.69;71.10;100930.28;4957868;28;20045;-78
2023/06/22 02:28:01;;;;;;;7.07;5.50;;;;;;;21.66;71.12;100933.38;4972711;28;20101;-78
2023/06/22 02:30:28;;;;;;;11.55;5.93;;;;;;;21.58;71.35;100933.69;4971012;28;20489;-80
2023/06/22 02:33:00;;;;;;;9.95;5.70;;;;;;;21.58;71.79;100928.34;4965882;28;20541;-78
2023/06/22 02:35:31;;;;;;;11.13;6.30;;;;;;;21.58;71.89;100926.50;4971466;28;20043;-78
2023/06/22 02:37:58;;;;;;;7.47;6.03;;;;;;;21.65;71.52;100923.78;4960456;29;20102;-76
2023/06/22 02:40:24;;;;;;;10.30;6.20;;;;;;;21.61;71.78;100923.41;4954125;29;20055;-78
2023/06/22 02:42:51;;;;;;;9.35;6.13;;;;;;;21.52;71.90;100920.22;4953389;29;20194;-78
2023/06/22 02:45:17;;;;;;;7.38;6.15;;;;;;;21.54;72.33;100920.00;4964211;28;20058;-79
2023/06/22 02:47:44;;;;;;;8.35;5.88;;;;;;;21.47;72.37;100916.56;4964871;28;20133;-77
2023/06/22 02:50:11;;;;;;;7.75;5.85;;;;;;;21.45;72.85;100921.31;4967047;28;20138;-79
2023/06/22 02:52:40;;;;;;;7.78;6.35;;;;;;;21.36;72.97;100911.97;4955554;28;20055;-79
2023/06/22 02:55:08;;;;;;;9.73;6.00;;;;;;;21.36;73.01;100909.31;4965248;28;20406;-79
2023/06/22 02:57:35;;;;;;;9.38;5.63;;;;;;;21.38;73.20;100912.56;4972516;28;20051;-78
2023/06/22 03:00:06;;;;;;;8.30;6.15;;;;;;;21.41;73.55;100909.47;4969066;28;20465;-78
2023/06/22 03:02:33;;;;;;;7.85;6.43;;;;;;;21.37;73.52;100900.28;4965568;28;20118;-78
2023/06/22 03:05:01;;;;;;;9.07;6.05;;;;;;;21.40;73.68;100905.19;4975162;28;20125;-77
2023/06/22 03:07:27;;;;;;;9.18;6.38;;;;;;;21.35;73.89;100895.19;4956990;29;20051;-78
2023/06/22 03:09:55;;;;;;;10.77;6.97;;;;;;;21.37;73.96;100897.63;4957372;29;20082;-78
2023/06/22 03:12:22;;;;;;;7.97;5.80;;;;;;;21.38;73.88;100894.75;4969254;28;20051;-78
2023/06/22 03:14:50;;;;;;;12.25;7.20;;;;;;;21.35;74.14;100891.72;4969787;28;20549;-78
2023/06/22 03:17:17;;;;;;;7.90;6.32;;;;;;;21.30;74.37;100889.72;4958398;28;20059;-78
2023/06/22 03:19:43;;;;;;;9.23;7.03;;;;;;;21.27;74.48;100892.81;4966630;28;20477;-78
2023/06/22 03:22:10;;;;;;;9.43;7.22;;;;;;;21.20;74.78;100889.41;4969176;28;20381;-78
2023/06/22 03:24:38;;;;;;;9.13;7.00;;;;;;;21.13;75.11;100889.44;4963090;28;20134;-77
2023/06/22 03:27:07;;;;;;;10.65;6.80;;;;;;;21.09;75.79;100884.78;4970526;28;20073;-77
2023/06/22 03:29:34;;;;;;;10.50;7.18;;;;;;;21.07;75.77;100878.88;4974793;28;20051;-78
2023/06/22 03:32:00;;;;;;;9.93;6.93;;;;;;;21.05;75.94;100879.09;4972774;28;20110;-78
2023/06/22 03:34:27;;;;;;;8.30;6.68;;;;;;;21.04;76.42;100874.78;4964283;29;20139;-78
2023/06/22 03:36:54;;;;;;;11.75;7.35;;;;;;;21.06;76.23;100871.91;4979871;28;20197;-77
2023/06/22 03:39:20;;;;;;;10.10;7.72;;;;;;;21.04;76.33;100868.66;4971199;28;20477;-77
2023/06/22 03:41:47;;;;;;;9.27;6.97;;;;;;;21.07;76.27;100874.34;4968980;28;20047;-77
2023/06/22 03:44:15;;;;;;;13.30;6.75;;;;;;;21.13;76.50;100864.69;4975093;28;20070;-79
2023/06/22 03:46:42;;;;;;;9.20;6.65;;;;;;;21.17;76.49;100866.69;4960568;29;20288;-79
2023/06/22 03:49:08;;;;;;;12.35;7.25;;;;;;;21.20;76.27;100857.47;4970766;28;20520;-79
2023/06/22 03:51:35;;;;;;;12.60;7.05;;;;;;;21.20;76.65;100863.59;4973431;28;20172;-79
2023/06/22 03:54:01;;;;;;;10.50;7.10;;;;;;;21.17;76.60;100864.03;4968988;28;20134;-79
2023/06/22 03:56:28;;;;;;;10.65;7.63;;;;;;;21.16;76.38;100862.41;4963513;28;20106;-79
2023/06/22 03:58:58;;;;;;;11.88;7.43;;;;;;;21.13;77.11;100862.03;4967010;28;20055;-79
2023/06/22 04:01:26;;;;;;;11.13;7.93;;;;;;;21.07;77.37;100871.69;4958944;29;20075;-79
2023/06/22 04:03:52;;;;;;;13.95;7.88;;;;;;;21.04;77.18;100864.16;4966025;28;20085;-78
2023/06/22 04:13:19;;;;;;;13.68;7.85;;;;;;;21.13;77.16;100854.84;4994222;28;20058;-84
2023/06/22 04:16:04;;;;;;;11.23;7.40;;;;;;;21.25;77.06;100843.53;4982770;28;20046;-80
2023/06/22 04:18:32;;;;;;;11.60;7.28;;;;;;;21.27;76.83;100854.75;4976789;28;20051;-81
2023/06/22 04:20:59;;;;;;;11.35;7.35;;;;;;;21.36;76.69;100853.41;4972520;28;20067;-81
2023/06/22 04:23:25;;;;;;;12.45;8.10;;;;;;;21.41;76.15;100857.03;4981978;28;20133;-82
2023/06/22 04:25:52;;;;;;;10.00;7.57;;;;;;;21.41;76.53;100870.34;4980866;28;20077;-81
2023/06/22 04:28:18;;;;;;;9.18;7.10;;;;;;;21.42;76.60;100869.31;4981153;28;20129;-81
2023/06/22 04:30:47;;;;;;;8.82;7.45;;;;;;;21.48;77.29;100879.09;4980690;28;20054;-80
2023/06/22 04:33:14;;;;;;;11.05;7.75;;;;;;;21.47;77.43;100882.78;4982569;28;20133;-82
2023/06/22 04:35:42;;;;;;;13.10;7.43;;;;;;;21.49;77.50;100894.03;4982727;28;20070;-80
2023/06/22 04:38:10;;;;;;;14.70;8.18;;;;;;;21.51;77.77;100885.81;4980612;28;20509;-83
2023/06/22 04:40:37;;;;;;;10.05;7.50;;;;;;;21.52;77.83;100887.44;4983015;28;20054;-79
2023/06/22 04:43:03;;;;;;;9.18;8.07;;;;;;;21.53;77.93;100891.72;4980563;28;20082;-82
2023/06/22 04:45:30;;;;;;;9.20;7.22;;;;;;;21.50;78.37;100895.66;4982716;28;20042;-81
2023/06/22 04:47:57;;;;;;;11.32;7.80;;;;;;;21.50;78.56;100898.31;5143351;23;20078;-81
2023/06/22 04:50:23;;;;;;;8.93;7.50;;;;;;;21.48;78.19;100892.41;4964901;28;20051;-83
2023/06/22 04:52:52;;;;;;;12.82;7.82;;;;;;;21.50;78.69;100897.50;4961280;28;20070;-83
2023/06/22 04:55:19;;;;;;;9.82;7.75;;;;;;;21.49;79.17;100890.53;4966984;28;20070;-81
2023/06/22 04:57:48;;;;;;;11.40;7.97;;;;;;;21.42;79.54;100898.59;4968229;28;20039;-81
2023/06/22 05:00:17;;;;;;;12.80;8.45;;;;;;;21.34;79.94;100898.88;4960787;29;20125;-81
2023/06/22 05:02:44;;;;;;;12.27;8.85;;;;;;;21.34;80.42;100896.22;4955104;28;20071;-80
2023/06/22 05:05:13;;;;;;;10.02;8.27;;;;;;;21.43;79.36;100878.94;4958063;29;20114;-80
2023/06/22 05:07:42;;;;;;;12.52;8.55;;;;;;;21.49;79.20;100879.91;4957285;29;20058;-79
2023/06/22 05:10:12;;;;;;;9.40;7.80;;;;;;;21.43;79.09;100878.13;4954600;29;20047;-80
2023/06/22 05:12:39;;;;;;;13.98;8.30;;;;;;;21.38;79.23;100886.75;4950658;28;20047;-81
2023/06/22 05:15:07;;;;;;;15.27;8.80;;;;;;;21.31;79.43;100875.38;4951307;28;20071;-79
2023/06/22 05:17:33;;;;;;;11.13;8.68;;;;;;;21.17;79.74;100881.84;4955479;28;20135;-79
2023/06/22 05:20:11;;;;;;;13.93;10.60;;;;;;;21.06;80.13;100861.28;4959859;28;20050;-80
2023/06/22 05:22:40;;;;;;;14.07;8.60;;;;;;;21.31;79.91;100885.19;4959063;28;20051;-80
2023/06/22 05:25:12;;;;;;;10.38;8.55;;;;;;;21.19;79.41;100850.50;4951694;28;20094;-79
2023/06/22 05:27:43;;;;;;;11.40;8.52;;;;;;;21.27;78.80;100846.78;4960623;29;20062;-80
2023/06/22 05:30:11;;;;;;;13.23;8.47;;;;;;;21.32;78.58;100854.88;4951728;29;20422;-79
2023/06/22 05:32:44;;;;;;;11.90;8.10;;;;;;;21.35;78.77;100862.44;4959354;28;20513;-81
2023/06/22 05:35:17;;;;;;;12.07;8.13;;;;;;;21.39;78.76;100867.09;4957410;29;20085;-79
2023/06/22 05:37:47;;;;;;;10.35;8.85;;;;;;;21.15;78.96;100849.31;4955203;29;20473;-80
2023/06/22 05:40:18;;;;;;;11.65;8.07;;;;;;;21.16;79.51;100857.09;4959367;28;20055;-81
2023/06/22 05:43:03;;;;;;;12.38;7.90;;;;;;;21.21;79.52;100848.47;4956258;29;20059;-80
2023/06/22 05:45:32;;;;;;;12.52;7.80;;;;;;;21.37;80.29;100871.81;4948228;28;20053;-81
2023/06/22 05:48:02;;;;;;;13.18;7.95;;;;;;;21.44;80.51;100869.09;4960475;28;20051;-82
2023/06/22 05:50:38;;;;;;;12.40;7.75;;;;;;;21.64;80.14;100882.19;4953165;28;20079;-79
2023/06/22 05:53:12;;;;;;;16.45;8.73;;;;;;;21.71;80.60;100880.28;4968851;28;20054;-82
2023/06/22 05:55:42;;;;;;;10.48;8.05;;;;;;;21.77;79.98;100876.69;4961278;28;20552;-82
2023/06/22 05:58:09;;;;;;;9.00;7.60;;;;;;;21.76;79.47;100861.75;4961631;28;20058;-80
2023/06/22 06:01:11;;;;;;;11.38;7.65;;;;;;;21.66;79.69;100864.97;4961977;28;20055;-80
2023/06/22 06:03:40;;;;;;;11.98;8.25;;;;;;;21.64;79.65;100864.38;4954091;28;20458;-79
2023/06/22 06:06:17;;;;;;;10.00;8.15;;;;;;;21.86;79.54;100894.00;4960976;28;20062;-77
2023/06/22 06:08:46;;;;;;;12.20;8.45;;;;;;;21.96;78.78;100880.97;4967417;28;20058;-79
2023/06/22 06:11:14;;;;;;;10.45;8.45;;;;;;;22.20;78.07;100897.09;4975982;28;20054;-81
2023/06/22 06:13:40;;;;;;;14.00;8.50;;;;;;;22.28;77.40;100889.56;4967865;28;20114;-80
2023/06/22 06:16:07;;;;;;;11.68;8.82;;;;;;;22.34;77.28;100898.53;4973802;28;20047;-79
2023/06/22 06:18:34;;;;;;;11.60;7.90;;;;;;;22.47;77.05;100895.69;4969866;28;20529;-80
2023/06/22 06:21:00;;;;;;;12.32;8.55;;;;;;;22.52;76.42;100891.28;4966033;28;20458;-81
2023/06/22 06:23:27;;;;;;;13.73;9.00;;;;;;;23.05;75.10;100903.00;4966623;28;20050;-81
2023/06/22 06:25:53;;;;;;;10.60;8.43;;;;;;;24.61;70.92;100901.06;4964035;28;20079;-81
2023/06/22 06:28:21;;;;;;;11.70;8.30;;;;;;;26.15;65.84;100909.16;4977994;28;20058;-78
2023/06/22 06:30:51;;;;;;;11.30;7.80;;;;;;;26.41;63.99;100915.63;4971763;29;20081;-80
2023/06/22 06:33:18;;;;;;;11.30;8.35;;;;;;;26.41;63.39;100911.06;4968893;29;20059;-80
2023/06/22 06:35:45;;;;;;;11.45;8.38;;;;;;;26.60;63.71;100927.59;4970908;28;20055;-80
2023/06/22 06:38:11;;;;;;;12.82;8.95;;;;;;;25.75;65.22;100922.91;4972230;29;20075;-81
2023/06/22 06:40:38;;;;;;;11.18;8.73;;;;;;;25.66;66.66;100935.09;4981486;28;20051;-77
2023/06/22 06:43:04;;;;;;;14.13;10.20;;;;;;;24.73;68.72;100929.41;4981216;28;20055;-79
2023/06/22 06:45:34;;;;;;;12.63;9.68;;;;;;;24.50;70.79;100923.38;4983448;28;20075;-79
2023/06/22 06:48:01;;;;;;;16.42;10.90;;;;;;;24.53;71.78;100921.03;4981538;28;20111;-78
2023/06/22 06:50:28;;;;;;;15.88;11.90;;;;;;;24.33;72.24;100912.63;4971515;28;20211;-81
2023/06/22 06:52:56;;;;;;;11.77;10.05;;;;;;;25.16;71.59;100905.72;4962180;29;20483;-78
2023/06/22 06:55:25;;;;;;;13.82;10.98;;;;;;;25.68;69.12;100900.84;4966730;29;20059;-80
2023/06/22 06:57:52;;;;;;;13.48;11.02;;;;;;;26.05;67.77;100899.09;4968705;29;20047;-80
2023/06/22 07:00:19;;;;;;;11.80;10.60;;;;;;;26.56;67.07;100902.31;4969784;28;20153;-79
2023/06/22 07:02:48;;;;;;;12.98;10.45;;;;;;;26.55;67.37;100906.06;4970828;29;20051;-79
2023/06/22 07:05:16;;;;;;;18.48;12.30;;;;;;;26.35;66.21;100895.97;4968796;29;20051;-80
2023/06/22 07:07:43;;;;;;;12.60;9.82;;;;;;;26.28;68.51;100902.56;4967375;29;20083;-79
2023/06/22 07:10:10;;;;;;;13.35;10.75;;;;;;;26.07;68.61;100888.13;4963839;28;20075;-78
2023/06/22 07:12:37;;;;;;;14.07;11.10;;;;;;;25.50;70.37;100882.38;4962917;28;20148;-79
2023/06/22 07:15:07;;;;;;;14.02;11.25;;;;;;;25.67;70.17;100878.56;4963043;29;20151;-80
2023/06/22 07:17:34;;;;;;;14.32;10.82;;;;;;;26.11;69.41;100876.66;4957677;29;20106;-81
2023/06/22 07:20:05;;;;;;;16.83;11.23;;;;;;;25.76;70.16;100870.91;4963155;28;20055;-80
2023/06/22 07:22:34;;;;;;;16.65;11.63;;;;;;;26.08;69.45;100865.63;4963003;29;20055;-79
2023/06/22 07:25:01;;;;;;;16.50;11.20;;;;;;;27.01;67.62;100869.66;4961910;29;20097;-80
2023/06/22 07:27:27;;;;;;;14.55;11.40;;;;;;;27.35;66.98;100863.97;4962070;28;20493;-80
2023/06/22 07:29:55;;;;;;;13.52;11.27;;;;;;;27.47;66.43;100858.34;4961688;29;20059;-81
2023/06/22 07:32:21;;;;;;;15.95;11.75;;;;;;;27.70;65.12;100860.63;4962473;29;20055;-79
2023/06/22 07:34:48;;;;;;;11.75;10.55;;;;;;;27.68;66.30;100857.41;4959536;29;20134;-77
2023/06/22 07:37:16;;;;;;;14.65;11.63;;;;;;;27.93;66.30;100865.53;4956228;28;20079;-77
2023/06/22 07:39:43;;;;;;;24.70;12.20;;;;;;;27.84;65.35;100852.88;4963565;28;20133;-78
2023/06/22 07:42:09;;;;;;;15.27;11.70;;;;;;;28.72;64.40;100851.63;4967689;28;20143;-77
2023/06/22 07:44:36;;;;;;;15.35;11.85;;;;;;;28.26;65.65;100844.63;4973434;28;20146;-77
2023/06/22 07:47:03;;;;;;;13.95;12.52;;;;;;;28.89;64.26;100832.47;4958796;28;20134;-78
2023/06/22 07:49:30;;;;;;;15.10;12.88;;;;;;;28.02;64.78;100825.47;4958156;29;20082;-78
2023/06/22 07:51:56;;;;;;;13.30;12.00;;;;;;;28.21;65.07;100836.53;4959318;29;20047;-77
2023/06/22 07:54:24;;;;;;;14.38;12.75;;;;;;;27.47;66.75;100844.91;4957271;28;20147;-79
2023/06/22 07:56:52;;;;;;;15.02;12.38;;;;;;;28.78;63.83;100836.25;4963130;28;20150;-79
2023/06/22 07:59:19;;;;;;;13.70;12.30;;;;;;;29.29;62.66;100834.28;4962260;28;20110;-78
2023/06/22 08:01:45;;;;;;;17.25;13.20;;;;;;;27.69;65.49;100834.81;4972604;28;20111;-79
2023/06/22 08:04:12;;;;;;;13.77;12.27;;;;;;;29.40;62.93;100827.72;4959022;28;20485;-79
2023/06/22 08:06:38;;;;;;;14.25;12.85;;;;;;;28.84;62.81;100812.81;4961526;29;20111;-79
2023/06/22 08:09:05;;;;;;;14.73;12.38;;;;;;;28.99;63.54;100816.28;4967375;29;20094;-78
2023/06/22 08:11:33;;;;;;;14.98;13.40;;;;;;;28.85;64.34;100806.38;4968227;29;20053;-81
2023/06/22 08:14:00;;;;;;;14.85;13.35;;;;;;;29.75;62.07;100799.00;4969326;28;20128;-79
2023/06/22 08:16:27;;;;;;;23.25;15.65;;;;;;;29.69;60.90;100792.03;4965230;28;20087;-79
2023/06/22 08:18:54;;;;;;;14.68;13.20;;;;;;;29.47;62.21;100799.69;4956172;29;20094;-80
2023/06/22 08:21:21;;;;;;;16.58;12.95;;;;;;;28.59;64.97;100790.25;4956600;29;20050;-78
2023/06/22 08:23:48;;;;;;;29.38;14.35;;;;;;;28.51;66.19;100792.66;4956198;28;20122;-79
2023/06/22 08:26:15;;;;;;;13.65;12.35;;;;;;;28.64;64.68;100771.38;4967508;28;20550;-77
2023/06/22 08:28:43;;;;;;;14.18;12.75;;;;;;;28.59;63.92;100779.47;4977163;28;20117;-79
2023/06/22 08:31:13;;;;;;;12.25;10.95;;;;;;;28.42;63.05;100763.59;4961376;28;20492;-80
2023/06/22 08:33:40;;;;;;;12.88;10.70;;;;;;;28.95;63.26;100777.53;4962903;28;20054;-78
2023/06/22 08:36:14;;;;;;;12.05;10.85;;;;;;;28.40;65.02;100775.72;4979994;28;20051;-78
2023/06/22 08:38:41;;;;;;;14.02;10.50;;;;;;;29.09;63.91;100776.94;4966565;28;20138;-78
2023/06/22 08:41:08;;;;;;;13.55;11.63;;;;;;;29.20;63.61;100773.94;4959324;28;20077;-80
2023/06/22 08:43:34;;;;;;;13.18;11.18;;;;;;;28.90;64.62;100768.66;4960075;28;20081;-77
2023/06/22 08:46:03;;;;;;;13.18;10.70;;;;;;;29.03;63.57;100754.59;4958052;28;20163;-79
2023/06/22 08:48:30;;;;;;;14.20;11.43;;;;;;;28.79;64.01;100756.28;4960655;28;20044;-78
2023/06/22 08:50:57;;;;;;;13.23;10.38;;;;;;;28.39;64.06;100749.88;4959306;28;20139;-77
2023/06/22 08:53:24;;;;;;;14.00;10.18;;;;;;;28.42;65.10;100735.88;4976767;28;20046;-79
2023/06/22 08:55:51;;;;;;;13.50;10.68;;;;;;;27.81;65.74;100725.16;4961454;28;20058;-78
2023/06/22 08:58:20;;;;;;;12.63;11.23;;;;;;;28.24;65.75;100723.00;4962745;28;20047;-77
2023/06/22 09:00:46;;;;;;;10.73;9.52;;;;;;;28.62;63.89;100724.28;4967483;28;20082;-80
2023/06/22 09:03:15;;;;;;;11.90;10.60;;;;;;;27.93;64.43;100732.94;4959220;28;20055;-79
2023/06/22 09:05:44;;;;;;;11.50;9.93;;;;;;;27.94;64.86;100724.59;4960671;29;20043;-78
2023/06/22 09:08:12;;;;;;;11.07;9.95;;;;;;;28.83;63.79;100725.84;4958170;28;20074;-78
2023/06/22 09:10:38;;;;;;;14.52;10.00;;;;;;;29.23;62.21;100724.88;4956441;28;20055;-78
2023/06/22 09:13:05;;;;;;;12.00;10.75;;;;;;;29.38;62.01;100727.47;4955403;29;20132;-79
2023/06/22 09:15:32;;;;;;;12.40;10.23;;;;;;;29.51;61.35;100718.00;4956432;29;20050;-79
2023/06/22 09:17:58;;;;;;;10.60;9.52;;;;;;;29.47;60.22;100710.72;4956884;29;20058;-79
2023/06/22 09:20:27;;;;;;;10.95;9.65;;;;;;;28.87;61.35;100701.84;4971252;28;20058;-79
2023/06/22 09:22:53;;;;;;;11.15;9.55;;;;;;;29.91;59.82;100707.97;4980026;28;20058;-78
2023/06/22 09:25:20;;;;;;;10.43;9.40;;;;;;;30.20;58.00;100691.84;4976822;28;20059;-79
2023/06/22 09:27:47;;;;;;;10.93;9.15;;;;;;;30.17;58.31;100685.13;4960092;28;20078;-79
2023/06/22 09:30:14;;;;;;;11.25;9.32;;;;;;;30.24;58.12;100680.19;4962019;29;20187;-78
2023/06/22 09:32:42;;;;;;;12.20;9.35;;;;;;;30.18;58.30;100681.34;4959044;28;20055;-77
2023/06/22 09:35:09;;;;;;;13.65;10.27;;;;;;;30.01;58.52;100676.34;4959720;28;20282;-79
2023/06/22 09:37:38;;;;;;;11.45;9.63;;;;;;;29.61;59.62;100671.28;4960898;28;20485;-79
2023/06/22 09:40:09;;;;;;;11.18;10.05;;;;;;;29.71;59.54;100666.63;4967510;28;20051;-79
2023/06/22 09:42:36;;;;;;;11.30;9.90;;;;;;;29.26;60.46;100658.84;4968572;29;20055;-79
2023/06/22 09:45:03;;;;;;;13.93;10.43;;;;;;;28.90;61.83;100666.28;4959830;28;20051;-79
2023/06/22 09:47:30;;;;;;;13.05;11.20;;;;;;;28.96;61.46;100662.50;4963580;29;20043;-79
2023/06/22 09:49:58;;;;;;;10.73;9.48;;;;;;;28.85;62.33;100653.66;4966740;29;20074;-79
2023/06/22 09:52:25;;;;;;;11.13;9.27;;;;;;;29.08;61.84;100668.38;4962018;29;20082;-78
2023/06/22 09:54:53;;;;;;;13.82;10.82;;;;;;;28.96;61.54;100659.81;4959655;29;20513;-78
2023/06/22 09:57:20;;;;;;;13.50;10.63;;;;;;;29.15;62.08;100668.88;4953526;29;20462;-78
2023/06/22 09:59:46;;;;;;;10.95;9.85;;;;;;;28.96;62.27;100662.50;4960032;29;20055;-78
2023/06/22 10:02:13;;;;;;;11.07;9.68;;;;;;;28.78;62.65;100671.19;4959543;28;20142;-78
2023/06/22 10:04:40;;;;;;;12.63;10.57;;;;;;;28.62;63.54;100671.25;4959540;29;20047;-77
2023/06/22 10:07:07;;;;;;;12.05;10.85;;;;;;;28.38;64.02;100659.44;4961393;28;20062;-80
2023/06/22 10:09:34;;;;;;;11.95;10.57;;;;;;;28.03;64.82;100682.63;4957710;29;20050;-78
2023/06/22 10:12:05;;;;;;;12.20;10.35;;;;;;;28.01;64.88;100684.78;4952704;28;20082;-78
2023/06/22 10:14:31;;;;;;;12.13;10.77;;;;;;;27.65;65.97;100699.31;4961213;29;20141;-78
2023/06/22 10:16:58;;;;;;;11.45;10.18;;;;;;;27.72;66.46;100716.81;4960871;28;20130;-79
2023/06/22 10:19:24;;;;;;;11.23;10.05;;;;;;;27.93;66.03;100731.03;4964228;29;20221;-79
2023/06/22 10:21:51;;;;;;;14.65;10.60;;;;;;;27.77;65.80;100731.31;4960334;28;20114;-78
2023/06/22 10:24:18;;;;;;;12.90;10.57;;;;;;;27.61;71.44;100755.50;4950497;29;20525;-77
2023/06/22 10:26:45;;;;;;;15.38;11.77;;;;;;;27.37;76.37;100763.22;4960743;29;20054;-79
2023/06/22 10:29:13;;;;;;;15.50;12.00;;;;;;;27.04;77.21;100760.91;4963868;29;20075;-77
2023/06/22 10:31:39;;;;;;;17.23;12.40;;;;;;;26.93;79.07;100772.66;4965065;28;20086;-78
2023/06/22 10:34:06;;;;;;;16.17;12.18;;;;;;;26.58;79.59;100771.38;4963591;29;20090;-79
2023/06/22 10:36:33;;;;;;;13.82;12.52;;;;;;;26.30;81.63;100793.16;4963710;28;20146;-79
2023/06/22 10:39:01;;;;;;;16.20;11.68;;;;;;;26.22;83.61;100801.66;4966080;28;20633;-78
2023/06/22 10:41:29;;;;;;;18.13;12.77;;;;;;;26.16;85.01;100816.09;4966125;29;20079;-81
2023/06/22 10:43:56;;;;;;;20.00;13.27;;;;;;;26.02;87.17;100821.03;4960870;29;20134;-78
2023/06/22 10:46:25;;;;;;;19.77;14.30;;;;;;;25.92;88.91;100826.31;4963607;28;20445;-80
2023/06/22 10:48:54;;;;;;;19.00;14.30;;;;;;;25.56;90.07;100823.22;4970181;28;20047;-77
2023/06/22 10:51:20;;;;;;;18.30;14.20;;;;;;;25.26;90.89;100826.34;4952683;29;20050;-78
2023/06/22 10:53:47;;;;;;;18.83;15.35;;;;;;;24.98;93.71;100826.50;4961746;28;20510;-79
2023/06/22 10:56:14;;;;;;;18.65;15.35;;;;;;;24.66;96.36;100839.63;4962455;29;20197;-79
2023/06/22 10:58:40;;;;;;;20.77;14.75;;;;;;;24.37;97.78;100833.53;4958407;29;20509;-77
2023/06/22 11:07:13;;;;;;;20.65;16.63;;;;;;;23.97;100.00;100778.31;4958133;29;20074;-79
2023/06/22 11:13:04;;;;;;;20.15;16.52;;;;;;;23.95;100.00;100792.97;4818817;29;20153;-79
2023/06/22 11:15:48;;;;;;;19.58;16.88;;;;;;;24.04;100.00;100789.66;4961231;28;20078;-80
2023/06/22 11:18:23;;;;;;;19.17;16.70;;;;;;;23.74;100.00;100757.84;4983405;28;20062;-80
2023/06/22 11:21:08;;;;;;;21.88;18.50;;;;;;;23.94;100.00;100762.75;4975238;28;20077;-78
2023/06/22 11:26:23;;;;;;;19.27;16.77;;;;;;;23.91;100.00;100733.84;4957169;28;20138;-79
2023/06/22 11:32:42;;;;;;;19.63;17.52;;;;;;;23.73;100.00;100697.44;4957617;29;20059;-80
2023/06/22 11:35:15;;;;;;;19.90;17.85;;;;;;;23.59;100.00;100700.69;4970452;29;20063;-81
2023/06/22 11:38:08;;;;;;;22.27;19.90;;;;;;;23.42;100.00;100672.03;4971282;29;20043;-80
2023/06/22 11:40:40;;;;;;;22.17;19.10;;;;;;;23.47;100.00;100669.47;4957920;29;20058;-81
2023/06/22 11:43:24;;;;;;;;;;;;;;;23.64;100.00;100661.47;4978249;28;20416;-81
2023/06/22 11:46:15;;;;;;;21.58;19.27;;;;;;;23.84;100.00;100618.28;4962253;29;19989;-81